MDT,Max TemperatureF,Mean TemperatureF,Min TemperatureF,Max Dew PointF,MeanDew PointF,Min DewpointF,Max Humidity, Mean Humidity, Min Humidity, Max Sea Level PressureIn, Mean Sea Level PressureIn, Min Sea Level PressureIn, Max VisibilityMiles, Mean VisibilityMiles, Min VisibilityMiles, Max Wind SpeedMPH, Mean Wind SpeedMPH, Max Gust SpeedMPH,PrecipitationIn, CloudCover, Events, WindDirDegrees
2013-4-1,61,42,23,25,22,19,75,49,22,30.11,30.05,29.98,10,10,10,16,5,21,0.00,0,,351
2013-4-2,67,44,21,27,22,17,74,45,15,30.12,30.02,29.92,10,10,9,13,4,15,0.00,0,,213
2013-4-3,62,46,30,31,27,22,78,51,24,30.11,30.05,29.98,10,10,10,18,7,23,0.00,4,,158
2013-4-4,67,49,31,34,29,24,85,53,20,30.05,29.92,29.71,10,10,10,25,7,31,0.00,4,,169
2013-4-5,61,49,37,39,32,20,76,50,24,29.90,29.77,29.71,10,10,9,28,9,33,0.02,6,Rain,282
2013-4-6,59,44,29,38,31,24,85,57,28,29.91,29.85,29.78,10,10,9,29,9,36,T,5,Rain-Thunderstorm,203
2013-4-7,54,43,31,37,33,28,96,69,41,29.83,29.68,29.58,10,10,6,24,6,28,0.18,7,Rain,269
2013-4-8,32,27,21,28,21,9,85,70,55,30.34,29.95,29.72,10,5,0,17,9,21,0.03,8,Fog-Snow,262
2013-4-9,39,28,17,16,12,9,74,56,37,30.47,30.39,30.32,10,10,10,16,5,17,0.00,3,,321
2013-4-10,57,37,17,36,23,14,84,57,30,30.35,30.06,29.78,10,10,10,26,5,33,T,6,Rain,223
2013-4-11,55,43,31,32,25,19,82,53,24,29.99,29.91,29.86,10,10,10,21,9,22,0.00,6,,296
2013-4-12,53,38,23,21,17,12,74,48,21,30.12,29.94,29.59,10,10,10,17,5,20,0.00,2,,182
2013-4-13,50,40,30,34,26,12,75,52,29,29.75,29.52,29.38,10,7,0,32,9,41,0.12,7,Fog-Rain-Snow,326
2013-4-14,40,32,23,25,21,14,92,66,40,29.95,29.81,29.73,10,7,1,18,8,25,0.02,7,Snow,333
2013-4-15,34,27,20,19,16,12,92,67,41,30.16,29.99,29.87,10,7,1,16,4,20,T,8,Snow,252
2013-4-16,33,24,15,23,17,8,88,64,39,30.34,30.21,30.08,10,6,0,14,5,17,0.10,7,Fog-Snow,203
2013-4-17,35,24,12,25,15,9,91,67,43,30.43,30.31,30.21,10,7,0,13,4,16,0.02,6,Fog-Snow,231
2013-4-18,50,31,12,23,15,7,80,55,29,30.37,30.30,30.20,10,10,10,21,6,29,T,4,,149
2013-4-19,55,39,22,37,28,17,92,64,35,30.21,29.99,29.85,10,10,4,26,7,32,0.10,6,Rain,190
2013-4-20,57,47,37,36,29,23,92,61,30,30.01,29.93,29.88,10,10,9,31,11,38,0.02,7,Rain,281
2013-4-21,47,36,24,28,25,21,88,69,49,30.24,30.07,30.00,10,6,1,21,8,24,0.03,8,Snow,281
2013-4-22,36,28,19,25,20,13,88,70,51,30.47,30.34,30.16,10,7,0,21,7,56,0.01,7,Snow,222
2013-4-23,45,30,14,20,14,8,80,54,27,30.45,30.32,30.21,10,10,10,21,7,24,0.00,2,,192
2013-4-24,59,40,20,21,17,10,84,50,15,30.33,30.17,29.96,10,10,10,21,6,28,0.00,3,,227
2013-4-25,66,50,33,22,18,13,48,31,14,30.04,29.90,29.80,10,10,10,23,10,29,0.00,2,,291
2013-4-26,71,50,29,28,23,17,75,45,14,30.19,30.12,30.05,10,10,10,21,8,26,0.00,0,,217
2013-4-27,75,54,32,29,23,17,75,43,11,30.16,30.01,29.85,10,10,10,28,12,36,0.00,2,,231
2013-4-28,65,52,38,31,25,17,50,35,19,29.98,29.88,29.80,10,10,10,28,9,33,T,5,,282
2013-4-29,59,45,30,36,23,15,64,43,22,29.83,29.66,29.52,10,10,10,39,17,48,0.01,5,,248
2013-4-30,46,34,22,27,19,4,92,56,19,30.28,30.08,29.84,10,8,1,22,9,26,0.02,5,Snow,209